createdAt,value
2022-08-09T00:00:11.368Z,99605.91
2022-08-09T00:03:00.903Z,99604.75
2022-08-09T00:06:17.291Z,99613.69
2022-08-09T00:08:32.059Z,99617.44
2022-08-09T00:11:05.987Z,99628.47
2022-08-09T00:13:50.973Z,99638.22
2022-08-09T00:16:25.845Z,99636.59
2022-08-09T00:19:10.275Z,99638.38
2022-08-09T00:21:56.140Z,99632.66
2022-08-09T00:24:27.395Z,99639.88
2022-08-09T00:26:57.393Z,99636.59
2022-08-09T00:29:39.652Z,99633.13
2022-08-09T00:32:26.548Z,99628.88
2022-08-09T00:34:56.648Z,99636.69
2022-08-09T00:37:30.229Z,99639.72
2022-08-09T00:40:13.802Z,99635.84
2022-08-09T00:44:19.801Z,99637.78
2022-08-09T00:45:35.271Z,99643.06
2022-08-09T00:48:05.581Z,99643.50
2022-08-09T00:50:37.651Z,99653.66
2022-08-09T00:53:10.601Z,99647.63
2022-08-09T00:56:03.612Z,99649.06
2022-08-09T00:58:31.519Z,99648.44
2022-08-09T01:01:00.483Z,99647.56
2022-08-09T01:03:45.487Z,99649.88
2022-08-09T01:06:21.554Z,99649.41
2022-08-09T01:08:59.827Z,99650.25
2022-08-09T01:11:53.113Z,99644.41
2022-08-09T01:14:31.510Z,99649.72
2022-08-09T01:17:05.543Z,99639.91
2022-08-09T01:20:01.795Z,99627.97
2022-08-09T01:22:52.050Z,99629.66
2022-08-09T01:25:48.777Z,99624.69
2022-08-09T01:28:23.619Z,99637.50
2022-08-09T01:30:59.889Z,99632.78
2022-08-09T01:33:31.991Z,99628.00
2022-08-09T01:36:05.509Z,99628.94
2022-08-09T01:38:40.073Z,99618.75
2022-08-09T01:41:14.361Z,99613.19
2022-08-09T01:43:50.801Z,99609.97
2022-08-09T01:46:24.679Z,99608.25
2022-08-09T01:48:59.644Z,99605.13
2022-08-09T01:51:32.623Z,99593.09
2022-08-09T01:54:04.266Z,99591.78
2022-08-09T01:56:34.836Z,99582.66
2022-08-09T01:59:11.059Z,99587.22
2022-08-09T02:01:59.791Z,99582.50
2022-08-09T02:04:32.857Z,99584.72
2022-08-09T02:07:18.074Z,99592.72
2022-08-09T02:10:04.158Z,99597.31
2022-08-09T02:12:35.630Z,99595.78
2022-08-09T02:15:15.453Z,99592.13
2022-08-09T02:18:00.970Z,99583.91
2022-08-09T02:20:42.537Z,99585.81
2022-08-09T02:23:16.985Z,99594.44
2022-08-09T02:25:52.660Z,99595.34
2022-08-09T02:28:28.642Z,99587.34
2022-08-09T02:31:05.916Z,99587.03
2022-08-09T02:34:06.280Z,99602.72
2022-08-09T02:36:33.065Z,99598.63
2022-08-09T02:39:05.714Z,99595.28
2022-08-09T02:41:42.722Z,99587.34
2022-08-09T02:44:25.531Z,99597.47
2022-08-09T02:47:04.407Z,99591.59
2022-08-09T02:49:39.030Z,99606.06
2022-08-09T02:52:14.373Z,99599.78
2022-08-09T02:54:53.839Z,99600.75
2022-08-09T02:57:25.421Z,99596.94
2022-08-09T03:00:21.357Z,99592.34
2022-08-09T03:02:59.843Z,99589.94
2022-08-09T03:05:34.161Z,99579.06
2022-08-09T03:08:05.746Z,99590.44
2022-08-09T03:10:37.368Z,99605.31
2022-08-09T03:13:08.589Z,99601.00
2022-08-09T03:16:05.711Z,99584.19
2022-08-09T03:18:32.272Z,99586.06
2022-08-09T03:21:03.558Z,99597.88
2022-08-09T03:23:32.632Z,99595.72
2022-08-09T03:26:04.735Z,99602.75
2022-08-09T03:28:35.860Z,99606.66
2022-08-09T03:31:10.329Z,99610.44
2022-08-09T03:33:54.866Z,99607.00
2022-08-09T03:36:27.443Z,99613.56
2022-08-09T03:38:58.033Z,99611.13
2022-08-09T03:41:29.801Z,99608.91
2022-08-09T03:44:15.574Z,99612.97
2022-08-09T03:46:44.986Z,99619.84
2022-08-09T03:49:19.129Z,99625.06
2022-08-09T03:51:56.577Z,99634.38
2022-08-09T03:54:31.816Z,99636.44
2022-08-09T03:57:04.588Z,99650.56
2022-08-09T03:59:54.676Z,99655.94
2022-08-09T04:02:27.553Z,99651.31
2022-08-09T04:05:00.875Z,99657.22
2022-08-09T04:07:47.802Z,99653.56
2022-08-09T04:10:28.715Z,99658.91
2022-08-09T04:13:01.359Z,99664.44
2022-08-09T04:16:17.087Z,99663.31
2022-08-09T04:18:21.928Z,99677.28
2022-08-09T04:20:52.259Z,99673.78
2022-08-09T04:23:24.494Z,99676.28
2022-08-09T04:25:54.618Z,99672.66
2022-08-09T04:28:33.058Z,99674.25
2022-08-09T04:31:07.896Z,99671.94
2022-08-09T04:33:52.308Z,99678.78
2022-08-09T04:36:28.383Z,99682.09
2022-08-09T04:38:59.185Z,99680.16
2022-08-09T04:41:33.086Z,99679.75
2022-08-09T04:44:06.937Z,99681.22
2022-08-09T04:46:58.419Z,99678.00
2022-08-09T04:49:55.033Z,99686.41
2022-08-09T04:52:27.107Z,99694.66
2022-08-09T04:54:57.755Z,99690.47
2022-08-09T04:57:58.541Z,99689.09
2022-08-09T05:00:17.392Z,99698.06
2022-08-09T05:02:51.919Z,99690.66
2022-08-09T05:05:32.011Z,99690.97
2022-08-09T05:08:14.751Z,99692.59
2022-08-09T05:10:44.582Z,99689.50
2022-08-09T05:13:14.327Z,99692.94
2022-08-09T05:15:52.175Z,99688.78
2022-08-09T05:18:42.520Z,99690.09
2022-08-09T05:21:24.338Z,99697.66
2022-08-09T05:24:01.911Z,99704.09
2022-08-09T05:26:45.822Z,99702.38
2022-08-09T05:29:21.221Z,99704.44
2022-08-09T05:31:56.961Z,99712.78
2022-08-09T05:34:30.631Z,99719.75
2022-08-09T05:37:06.273Z,99712.69
2022-08-09T05:39:43.551Z,99713.38
2022-08-09T05:42:17.812Z,99714.19
2022-08-09T05:44:52.090Z,99715.44
2022-08-09T05:47:22.619Z,99718.34
2022-08-09T05:50:30.348Z,99717.97
2022-08-09T05:52:42.060Z,99718.25
2022-08-09T05:55:20.525Z,99723.41
2022-08-09T05:57:57.020Z,99725.69
2022-08-09T06:00:29.579Z,99732.56
2022-08-09T06:02:59.609Z,99726.34
2022-08-09T06:05:50.512Z,99725.28
2022-08-09T06:08:19.143Z,99737.41
2022-08-09T06:10:55.328Z,99731.00
2022-08-09T06:13:24.855Z,99732.25
2022-08-09T06:15:53.889Z,99735.03
2022-08-09T06:18:23.821Z,99741.97
2022-08-09T06:20:54.601Z,99747.16
2022-08-09T06:23:55.260Z,99743.31
2022-08-09T06:26:20.570Z,99753.63
2022-08-09T06:28:59.485Z,99751.03
2022-08-09T06:31:31.418Z,99746.91
2022-08-09T06:34:09.391Z,99741.34
2022-08-09T06:36:43.965Z,99745.41
2022-08-09T06:39:13.508Z,99738.00
2022-08-09T06:42:08.224Z,99748.38
2022-08-09T06:44:33.600Z,99745.44
2022-08-09T06:47:04.124Z,99743.47
2022-08-09T06:50:12.083Z,99749.25
2022-08-09T06:52:23.691Z,99752.88
2022-08-09T06:54:54.097Z,99749.06
2022-08-09T06:57:42.456Z,99751.69
2022-08-09T07:00:53.979Z,99749.97
2022-08-09T07:03:05.938Z,99752.81
2022-08-09T07:05:53.615Z,99750.06
2022-08-09T07:08:24.700Z,99751.59
2022-08-09T07:10:53.710Z,99754.28
2022-08-09T07:13:29.506Z,99756.97
2022-08-09T07:16:44.010Z,99752.88
2022-08-09T07:18:50.043Z,99760.16
2022-08-09T07:21:19.961Z,99767.16
2022-08-09T07:23:58.171Z,99762.84
2022-08-09T07:26:27.497Z,99759.81
2022-08-09T07:29:09.022Z,99758.50
2022-08-09T07:31:45.566Z,99757.59
2022-08-09T07:34:20.561Z,99760.25
2022-08-09T07:36:50.713Z,99755.97
2022-08-09T07:39:40.278Z,99761.78
2022-08-09T07:42:11.423Z,99759.00
2022-08-09T07:44:51.031Z,99765.94
2022-08-09T07:47:21.744Z,99763.81
2022-08-09T07:50:08.020Z,99770.47
2022-08-09T07:52:38.404Z,99777.31
2022-08-09T07:55:08.711Z,99778.00
2022-08-09T07:57:47.309Z,99775.34
2022-08-09T08:00:20.530Z,99782.88
2022-08-09T08:03:08.253Z,99775.19
2022-08-09T08:05:54.476Z,99770.19
2022-08-09T08:09:00.718Z,99781.66
2022-08-09T08:12:11.989Z,99778.31
2022-08-09T08:14:06.458Z,99778.03
2022-08-09T08:16:39.629Z,99779.63
2022-08-09T08:19:19.700Z,99778.25
2022-08-09T08:21:52.794Z,99781.91
2022-08-09T08:24:21.926Z,99786.06
2022-08-09T08:26:55.591Z,99791.03
2022-08-09T08:29:27.858Z,99791.25
2022-08-09T08:32:03.100Z,99787.50
2022-08-09T08:34:34.888Z,99788.16
2022-08-09T08:37:06.326Z,99777.19
2022-08-09T08:39:45.001Z,99772.31
2022-08-09T08:42:13.853Z,99786.56
2022-08-09T08:44:46.320Z,99782.00
2022-08-09T08:47:17.283Z,99778.38
2022-08-09T08:49:49.308Z,99787.63
2022-08-09T08:52:58.165Z,99776.97
2022-08-09T08:55:10.100Z,99785.03
2022-08-09T08:57:38.910Z,99789.56
2022-08-09T09:00:16.939Z,99788.00
2022-08-09T09:03:08.567Z,99783.47
2022-08-09T09:05:58.645Z,99779.16
2022-08-09T09:08:40.902Z,99775.00
2022-08-09T09:11:13.783Z,99776.16
2022-08-09T09:13:57.556Z,99781.31
2022-08-09T09:16:30.476Z,99770.66
2022-08-09T09:22:04.194Z,99785.47
2022-08-09T09:24:37.879Z,99786.47
2022-08-09T09:27:08.623Z,99783.16
2022-08-09T09:30:10.725Z,99775.84
2022-08-09T09:32:34.754Z,99777.78
2022-08-09T09:35:10.641Z,99781.84
2022-08-09T09:37:41.850Z,99788.06
2022-08-09T09:40:13.053Z,99776.50
2022-08-09T09:42:42.983Z,99785.09
2022-08-09T09:45:26.466Z,99782.41
2022-08-09T09:47:59.047Z,99778.91
2022-08-09T09:50:54.584Z,99771.72
2022-08-09T09:53:44.199Z,99774.75
2022-08-09T09:56:31.091Z,99776.22
2022-08-09T09:59:01.277Z,99764.00
2022-08-09T10:01:38.213Z,99772.16
2022-08-09T10:04:30.646Z,99779.22
2022-08-09T10:07:03.582Z,99767.53
2022-08-09T10:09:54.612Z,99766.50
2022-08-09T10:12:31.463Z,99774.16
2022-08-09T10:15:17.753Z,99768.97
2022-08-09T10:18:12.889Z,99777.97
2022-08-09T10:20:45.274Z,99769.63
2022-08-09T10:23:19.934Z,99756.06
2022-08-09T10:26:06.837Z,99762.16
2022-08-09T10:28:41.278Z,99756.69
2022-08-09T10:34:08.423Z,99760.13
2022-08-09T10:36:42.228Z,99757.25
2022-08-09T10:39:16.200Z,99759.56
2022-08-09T10:41:47.787Z,99749.53
2022-08-09T10:44:21.770Z,99750.03
2022-08-09T10:47:20.449Z,99751.47
2022-08-09T10:50:09.878Z,99748.94
2022-08-09T10:53:10.647Z,99752.59
2022-08-09T10:55:58.323Z,99745.19
2022-08-09T10:58:33.758Z,99741.56
2022-08-09T11:03:06.385Z,99746.22
2022-08-09T11:04:27.984Z,99738.22
2022-08-09T11:07:57.316Z,99735.09
2022-08-09T11:11:00.816Z,99731.00
2022-08-09T11:13:49.958Z,99727.28
2022-08-09T11:16:35.496Z,99733.19
2022-08-09T11:19:09.320Z,99725.28
2022-08-09T11:22:21.523Z,99721.06
2022-08-09T11:25:08.943Z,99717.75
2022-08-09T11:28:09.189Z,99710.16
2022-08-09T11:30:36.721Z,99712.34
2022-08-09T11:33:12.950Z,99707.47
2022-08-09T11:35:49.431Z,99702.72
2022-08-09T11:38:22.121Z,99700.75
2022-08-09T11:40:52.982Z,99694.78
2022-08-09T11:43:52.050Z,99694.75
2022-08-09T11:46:33.146Z,99694.16
2022-08-09T11:49:04.949Z,99697.22
2022-08-09T11:53:02.972Z,99702.34
2022-08-09T11:55:39.942Z,99688.66
2022-08-09T11:58:50.059Z,99681.22
2022-08-09T12:02:16.317Z,99690.50
2022-08-09T12:04:20.927Z,99686.34
2022-08-09T12:06:57.839Z,99685.81
2022-08-09T12:09:33.874Z,99685.97
2022-08-09T12:12:12.938Z,99680.44
2022-08-09T12:15:07.714Z,99667.34
2022-08-09T12:17:43.611Z,99676.72
2022-08-09T12:20:16.685Z,99674.66
2022-08-09T12:22:55.817Z,99679.94
2022-08-09T12:25:35.700Z,99675.25
2022-08-09T12:29:10.495Z,99673.94
2022-08-09T12:31:11.171Z,99665.16
2022-08-09T12:34:00.738Z,99661.78
2022-08-09T12:36:33.646Z,99659.47
2022-08-09T12:39:14.974Z,99650.75
2022-08-09T12:41:43.640Z,99664.25
2022-08-09T12:44:13.348Z,99656.41
2022-08-09T12:46:49.092Z,99649.97
2022-08-09T12:49:21.370Z,99650.63
2022-08-09T12:52:02.294Z,99649.13
2022-08-09T12:55:03.079Z,99645.75
2022-08-09T12:57:40.170Z,99641.09
2022-08-09T13:00:16.592Z,99633.66
2022-08-09T13:02:54.836Z,99637.00
2022-08-09T13:05:25.531Z,99624.47
2022-08-09T13:08:15.219Z,99631.91
2022-08-09T13:10:52.428Z,99618.88
2022-08-09T13:13:38.499Z,99627.47
2022-08-09T13:16:21.842Z,99637.31
2022-08-09T13:18:54.048Z,99620.50
2022-08-09T13:22:37.419Z,99612.25
2022-08-09T13:24:53.839Z,99614.84
2022-08-09T13:27:06.005Z,99612.28
2022-08-09T13:30:03.081Z,99621.38
2022-08-09T13:32:29.235Z,99618.91
2022-08-09T13:34:59.080Z,99612.56
2022-08-09T13:37:52.364Z,99612.63
2022-08-09T13:41:55.513Z,99614.16
2022-08-09T13:43:09.987Z,99612.00
2022-08-09T13:46:42.555Z,99619.69
2022-08-09T13:48:29.929Z,99613.03
2022-08-09T13:50:59.935Z,99617.63
2022-08-09T13:53:41.508Z,99624.41
2022-08-09T13:56:13.202Z,99609.28
2022-08-09T13:58:42.276Z,99607.50
2022-08-09T14:01:13.466Z,99620.56
2022-08-09T14:04:04.860Z,99614.47
2022-08-09T14:06:40.864Z,99604.59
2022-08-09T14:09:15.436Z,99607.03
2022-08-09T14:11:47.204Z,99603.53
2022-08-09T14:14:23.924Z,99600.41
2022-08-09T14:16:55.663Z,99600.19
2022-08-09T14:19:24.978Z,99608.28
2022-08-09T14:21:54.985Z,99606.72
2022-08-09T14:24:32.343Z,99603.72
2022-08-09T14:27:02.614Z,99602.34
2022-08-09T14:30:35.158Z,99601.94
2022-08-09T14:32:28.752Z,99608.00
2022-08-09T14:34:59.461Z,99607.59
2022-08-09T14:38:01.306Z,99615.59
2022-08-09T14:40:18.072Z,99605.13
2022-08-09T14:43:06.745Z,99608.09
2022-08-09T14:46:54.206Z,99600.28
2022-08-09T14:48:23.877Z,99597.84
2022-08-09T14:50:55.366Z,99588.97
2022-08-09T14:53:25.474Z,99594.59
2022-08-09T14:55:54.338Z,99590.00
2022-08-09T14:58:23.075Z,99590.44
2022-08-09T15:00:52.438Z,99583.13
2022-08-09T15:03:21.327Z,99578.47
2022-08-09T15:05:53.852Z,99581.22
2022-08-09T15:08:30.418Z,99578.22
2022-08-09T15:11:00.392Z,99576.13
2022-08-09T15:13:56.320Z,99565.25
2022-08-09T15:16:19.618Z,99570.56
2022-08-09T15:18:49.383Z,99560.00
2022-08-09T15:22:00.928Z,99564.69
2022-08-09T15:24:17.596Z,99562.22
2022-08-09T15:26:47.660Z,99559.56
2022-08-09T15:30:59.193Z,99557.16
2022-08-09T15:32:29.492Z,99559.78
2022-08-09T15:35:00.614Z,99559.06
2022-08-09T15:37:56.181Z,99561.81
2022-08-09T15:40:32.109Z,99560.72
2022-08-09T15:43:01.801Z,99547.25
2022-08-09T15:45:31.136Z,99548.72
2022-08-09T15:48:29.402Z,99548.97
2022-08-09T15:51:01.548Z,99546.28
2022-08-09T15:54:04.360Z,99542.16
2022-08-09T15:56:28.662Z,99543.72
2022-08-09T15:58:59.904Z,99541.00
2022-08-09T16:01:31.501Z,99545.88
2022-08-09T16:04:03.919Z,99549.28
2022-08-09T16:06:35.340Z,99555.03
2022-08-09T16:09:05.276Z,99550.47
2022-08-09T16:11:35.679Z,99561.22
2022-08-09T16:14:07.995Z,99555.88
2022-08-09T16:16:39.070Z,99557.38
2022-08-09T16:19:13.610Z,99553.56
2022-08-09T16:21:51.798Z,99552.38
2022-08-09T16:24:32.959Z,99561.06
2022-08-09T16:27:05.247Z,99572.97
2022-08-09T16:29:36.795Z,99573.63
2022-08-09T16:32:17.936Z,99574.00
2022-08-09T16:34:58.070Z,99582.34
2022-08-09T16:37:56.084Z,99572.59
2022-08-09T16:40:20.623Z,99576.84
2022-08-09T16:43:09.097Z,99583.59
2022-08-09T16:45:44.035Z,99583.66
2022-08-09T16:48:40.919Z,99589.97
2022-08-09T16:51:08.394Z,99582.16
2022-08-09T16:53:47.248Z,99590.63
2022-08-09T16:56:26.311Z,99585.38
2022-08-09T16:59:01.718Z,99592.22
2022-08-09T17:01:35.614Z,99582.16
2022-08-09T17:04:05.411Z,99603.03
2022-08-09T17:07:03.893Z,99604.72
2022-08-09T17:09:44.967Z,99604.84
2022-08-09T17:12:12.989Z,99607.63
2022-08-09T17:14:47.842Z,99614.47
2022-08-09T17:17:27.371Z,99605.19
2022-08-09T17:20:32.387Z,99604.78
2022-08-09T17:22:50.005Z,99614.53
2022-08-09T17:25:21.999Z,99607.16
2022-08-09T17:27:54.674Z,99603.75
2022-08-09T17:30:28.290Z,99605.53
2022-08-09T17:33:04.677Z,99609.88
2022-08-09T17:35:41.105Z,99610.63
2022-08-09T17:38:32.293Z,99608.44
2022-08-09T17:41:01.012Z,99619.06
2022-08-09T17:43:34.889Z,99623.19
2022-08-09T17:46:09.573Z,99617.16
2022-08-09T17:48:46.483Z,99616.72
2022-08-09T17:51:21.590Z,99625.31
2022-08-09T17:53:54.677Z,99633.34
2022-08-09T17:56:27.482Z,99629.34
2022-08-09T17:59:02.948Z,99636.16
2022-08-09T18:02:03.834Z,99640.19
2022-08-09T18:04:23.600Z,99643.81
2022-08-09T18:06:55.317Z,99648.16
2022-08-09T18:09:35.840Z,99651.72
2022-08-09T18:12:14.898Z,99660.16
2022-08-09T18:14:49.889Z,99668.97
2022-08-09T18:17:27.644Z,99669.72
2022-08-09T18:20:59.099Z,99680.22
2022-08-09T18:23:05.032Z,99682.22
2022-08-09T18:25:50.783Z,99679.50
2022-08-09T18:30:42.992Z,99685.97
2022-08-09T18:31:12.613Z,99681.72
2022-08-09T18:33:51.479Z,99685.69
2022-08-09T18:36:25.653Z,99689.72
2022-08-09T18:39:02.782Z,99692.13
2022-08-09T18:41:34.687Z,99693.94
2022-08-09T18:44:13.003Z,99694.22
2022-08-09T18:46:49.451Z,99698.66
2022-08-09T18:49:32.088Z,99701.81
2022-08-09T18:52:10.073Z,99712.13
2022-08-09T18:54:49.765Z,99712.31
2022-08-09T18:57:22.347Z,99714.00
2022-08-09T18:59:57.610Z,99707.16
2022-08-09T19:02:31.667Z,99713.84
2022-08-09T19:05:20.617Z,99715.06
2022-08-09T19:08:04.813Z,99727.72
2022-08-09T19:10:39.998Z,99718.66
2022-08-09T19:13:22.585Z,99715.22
2022-08-09T19:16:00.268Z,99717.59
2022-08-09T19:18:34.043Z,99720.78
2022-08-09T19:21:10.491Z,99720.53
2022-08-09T19:24:32.424Z,99712.75
2022-08-09T19:26:32.215Z,99715.75
2022-08-09T19:29:03.136Z,99725.72
2022-08-09T19:31:44.947Z,99724.00
2022-08-09T19:34:22.280Z,99721.22
2022-08-09T19:36:54.017Z,99722.09
2022-08-09T19:39:43.129Z,99728.38
2022-08-09T19:42:15.315Z,99723.50
2022-08-09T19:44:50.767Z,99718.97
2022-08-09T19:47:22.913Z,99728.50
2022-08-09T19:50:06.716Z,99724.31
2022-08-09T19:52:51.386Z,99735.22
2022-08-09T19:55:30.795Z,99738.72
2022-08-09T19:58:16.722Z,99731.84
2022-08-09T20:00:47.274Z,99734.19
2022-08-09T20:04:12.175Z,99733.97
2022-08-09T20:06:22.332Z,99730.31
2022-08-09T20:08:56.530Z,99733.97
2022-08-09T20:11:26.712Z,99725.44
2022-08-09T20:13:56.135Z,99722.03
2022-08-09T20:16:37.314Z,99720.72
2022-08-09T20:19:49.517Z,99714.53
2022-08-09T20:22:02.169Z,99717.81
2022-08-09T20:24:35.028Z,99722.75
2022-08-09T20:27:08.373Z,99722.00
2022-08-09T20:29:39.170Z,99711.41
2022-08-09T20:32:30.922Z,99715.78
2022-08-09T20:34:58.568Z,99708.78
2022-08-09T20:38:18.894Z,99702.78
2022-08-09T20:40:26.423Z,99709.78
2022-08-09T20:43:12.106Z,99711.53
2022-08-09T20:46:00.403Z,99714.56
2022-08-09T20:48:37.661Z,99715.78
2022-08-09T20:51:06.895Z,99714.06
2022-08-09T20:53:38.754Z,99718.38
2022-08-09T20:56:19.866Z,99711.59
2022-08-09T20:58:54.608Z,99719.75
2022-08-09T21:01:35.287Z,99716.13
2022-08-09T21:05:54.482Z,99719.19
2022-08-09T21:07:12.319Z,99724.31
2022-08-09T21:09:55.487Z,99727.47
2022-08-09T21:15:23.709Z,99718.09
2022-08-09T21:18:29.741Z,99725.94
2022-08-09T21:20:54.767Z,99720.13
2022-08-09T21:23:26.540Z,99717.34
2022-08-09T21:26:15.654Z,99723.81
2022-08-09T21:28:55.869Z,99727.25
2022-08-09T21:31:48.666Z,99723.44
2022-08-09T21:34:18.103Z,99725.06
2022-08-09T21:36:57.567Z,99730.91
2022-08-09T21:39:27.967Z,99724.56
2022-08-09T21:42:10.321Z,99721.47
2022-08-09T21:44:42.791Z,99719.75
2022-08-09T21:47:14.152Z,99719.75
2022-08-09T21:49:48.138Z,99720.03
2022-08-09T21:52:20.615Z,99718.63
2022-08-09T21:54:59.342Z,99722.53
2022-08-09T21:57:39.385Z,99718.69
2022-08-09T22:00:32.113Z,99714.19
2022-08-09T22:03:04.778Z,99718.28
2022-08-09T22:05:37.189Z,99716.78
2022-08-09T22:08:13.833Z,99718.22
2022-08-09T22:11:05.272Z,99711.09
2022-08-09T22:13:35.655Z,99719.72
2022-08-09T22:16:09.052Z,99713.28
2022-08-09T22:18:52.794Z,99714.72
2022-08-09T22:21:27.411Z,99708.66
2022-08-09T22:24:17.147Z,99707.13
2022-08-09T22:26:51.683Z,99716.56
2022-08-09T22:29:26.832Z,99719.28
2022-08-09T22:32:02.365Z,99715.63
2022-08-09T22:34:30.841Z,99721.75
2022-08-09T22:37:00.614Z,99711.66
2022-08-09T22:39:56.432Z,99714.50
2022-08-09T22:42:21.929Z,99711.56
2022-08-09T22:48:04.902Z,99709.66
2022-08-09T22:48:10.227Z,99703.09
2022-08-09T22:50:34.231Z,99714.88
2022-08-09T22:53:04.266Z,99709.13
2022-08-09T22:56:06.524Z,99709.38
2022-08-09T22:58:32.199Z,99713.84
2022-08-09T23:01:02.367Z,99706.56
2022-08-09T23:04:05.520Z,99707.38
2022-08-09T23:06:32.637Z,99704.22
2022-08-09T23:09:05.742Z,99709.50
2022-08-09T23:11:34.384Z,99708.41
2022-08-09T23:14:03.655Z,99710.03
2022-08-09T23:16:32.656Z,99706.38
2022-08-09T23:19:02.471Z,99702.81
2022-08-09T23:21:34.586Z,99696.31
2022-08-09T23:24:07.275Z,99700.28
2022-08-09T23:26:36.547Z,99687.91
2022-08-09T23:29:05.619Z,99693.94
2022-08-09T23:31:34.915Z,99702.19
2022-08-09T23:34:04.975Z,99695.13
2022-08-09T23:36:35.143Z,99693.41
2022-08-09T23:39:06.272Z,99693.41
2022-08-09T23:41:35.146Z,99700.47
2022-08-09T23:44:04.746Z,99692.06
2022-08-09T23:46:33.776Z,99689.00
2022-08-09T23:49:04.645Z,99687.28
2022-08-09T23:51:33.213Z,99687.22
2022-08-09T23:54:02.608Z,99683.00
2022-08-09T23:56:52.207Z,99674.69
2022-08-09T23:59:21.609Z,99675.41
